createdAt,value
2018-10-02T00:00:25.548Z,0.00
2018-10-02T00:01:25.774Z,0.00
2018-10-02T00:02:26.004Z,0.00
2018-10-02T00:03:26.224Z,0.00
2018-10-02T00:04:26.447Z,0.00
2018-10-02T00:05:26.671Z,0.00
2018-10-02T00:06:26.894Z,0.00
2018-10-02T00:07:27.123Z,0.00
2018-10-02T00:08:27.338Z,0.00
2018-10-02T00:09:27.564Z,0.00
2018-10-02T00:10:27.790Z,0.00
2018-10-02T00:11:28.016Z,0.00
2018-10-02T00:12:28.238Z,0.00
2018-10-02T00:13:28.462Z,0.00
2018-10-02T00:14:28.686Z,0.00
2018-10-02T00:15:28.914Z,0.00
2018-10-02T00:16:29.137Z,0.00
2018-10-02T00:17:29.363Z,0.00
2018-10-02T00:18:29.592Z,0.00
2018-10-02T00:19:29.814Z,0.00
2018-10-02T00:20:30.036Z,0.00
2018-10-02T00:21:30.260Z,0.00
2018-10-02T00:22:30.485Z,0.00
2018-10-02T00:23:30.711Z,0.00
2018-10-02T00:24:30.948Z,0.00
2018-10-02T00:25:31.171Z,0.00
2018-10-02T00:26:31.394Z,0.00
2018-10-02T00:27:31.621Z,0.00
2018-10-02T00:28:31.848Z,0.00
2018-10-02T00:29:32.068Z,0.00
2018-10-02T00:30:32.293Z,0.00
2018-10-02T00:31:32.578Z,0.00
2018-10-02T00:32:32.743Z,0.00
2018-10-02T00:33:32.967Z,0.00
2018-10-02T00:34:33.191Z,0.00
2018-10-02T00:35:33.416Z,0.00
2018-10-02T00:36:33.641Z,0.00
2018-10-02T00:37:33.864Z,0.00
2018-10-02T00:38:34.089Z,0.00
2018-10-02T00:39:34.314Z,0.00
2018-10-02T00:40:34.539Z,0.00
2018-10-02T00:41:34.764Z,0.00
2018-10-02T00:42:34.988Z,0.00
2018-10-02T00:43:35.214Z,0.00
2018-10-02T00:44:35.440Z,0.00
2018-10-02T00:45:35.664Z,0.00
2018-10-02T00:46:35.890Z,0.00
2018-10-02T00:47:36.116Z,0.00
2018-10-02T00:48:36.344Z,0.00
2018-10-02T00:49:36.568Z,0.00
2018-10-02T00:50:36.790Z,0.00
2018-10-02T00:51:37.013Z,0.00
2018-10-02T00:52:37.235Z,0.00
2018-10-02T00:53:37.457Z,0.00
2018-10-02T00:54:37.683Z,0.00
2018-10-02T00:55:37.908Z,0.00
2018-10-02T00:56:38.135Z,0.00
2018-10-02T00:57:38.358Z,0.00
2018-10-02T00:58:38.587Z,0.00
2018-10-02T00:59:38.810Z,0.00
2018-10-02T01:00:39.034Z,0.00
2018-10-02T01:01:39.262Z,0.00
2018-10-02T01:02:39.485Z,0.00
2018-10-02T01:03:39.708Z,0.00
2018-10-02T01:04:39.935Z,0.00
2018-10-02T01:05:40.160Z,0.00
2018-10-02T01:06:40.384Z,0.00
2018-10-02T01:07:40.609Z,0.00
2018-10-02T01:08:40.835Z,0.00
2018-10-02T01:09:41.071Z,0.00
2018-10-02T01:10:41.284Z,0.00
2018-10-02T01:11:41.510Z,0.00
2018-10-02T01:12:41.733Z,0.00
2018-10-02T01:13:41.959Z,0.00
2018-10-02T01:14:42.184Z,0.00
2018-10-02T01:15:42.408Z,0.00
2018-10-02T01:16:42.630Z,0.00
2018-10-02T01:17:42.856Z,0.00
2018-10-02T01:18:43.078Z,0.00
2018-10-02T01:19:43.303Z,0.00
2018-10-02T01:20:43.528Z,0.00
2018-10-02T01:21:43.753Z,0.00
2018-10-02T01:22:43.975Z,0.00
2018-10-02T01:23:44.200Z,0.00
2018-10-02T01:24:44.424Z,0.00
2018-10-02T01:25:44.649Z,0.00
2018-10-02T01:26:44.873Z,0.00
2018-10-02T01:27:45.097Z,0.00
2018-10-02T01:28:45.321Z,0.00
2018-10-02T01:29:45.544Z,0.00
2018-10-02T01:30:45.769Z,0.00
2018-10-02T01:31:45.996Z,0.00
2018-10-02T01:32:46.221Z,0.00
2018-10-02T01:33:46.443Z,0.00
2018-10-02T01:34:46.669Z,0.00
2018-10-02T01:35:46.891Z,0.00
2018-10-02T01:36:47.121Z,0.00
2018-10-02T01:37:47.339Z,0.00
2018-10-02T01:38:47.567Z,0.00
2018-10-02T01:39:47.792Z,0.00
2018-10-02T01:40:48.016Z,0.00
2018-10-02T01:41:48.240Z,0.00
2018-10-02T01:42:48.466Z,0.00
2018-10-02T01:43:48.690Z,0.00
2018-10-02T01:44:48.913Z,0.00
2018-10-02T01:45:49.135Z,0.00
2018-10-02T01:46:49.360Z,0.00
2018-10-02T01:47:49.588Z,0.00
2018-10-02T01:48:49.810Z,0.00
2018-10-02T01:49:50.034Z,0.00
2018-10-02T01:50:50.260Z,0.00
2018-10-02T01:51:50.483Z,0.00
2018-10-02T01:52:50.703Z,0.00
2018-10-02T01:53:50.930Z,0.00
2018-10-02T01:54:51.152Z,0.00
2018-10-02T01:55:51.376Z,0.00
2018-10-02T01:56:51.598Z,0.00
2018-10-02T01:57:51.823Z,0.00
2018-10-02T01:58:52.045Z,0.00
2018-10-02T01:59:52.268Z,0.00
2018-10-02T02:00:52.490Z,0.00
2018-10-02T02:01:52.713Z,0.00
2018-10-02T02:02:52.937Z,0.00
2018-10-02T02:03:53.159Z,0.00
2018-10-02T02:04:53.383Z,0.00
2018-10-02T02:05:53.607Z,0.00
2018-10-02T02:06:53.832Z,0.00
2018-10-02T02:07:54.055Z,0.00
2018-10-02T02:08:54.280Z,0.00
2018-10-02T02:09:54.501Z,0.00
2018-10-02T02:10:54.727Z,0.00
2018-10-02T02:11:54.948Z,0.00
2018-10-02T02:12:55.173Z,0.00
2018-10-02T02:13:55.403Z,0.00
2018-10-02T02:14:55.627Z,0.00
2018-10-02T02:15:55.853Z,0.00
2018-10-02T02:16:56.074Z,0.00
2018-10-02T02:17:56.298Z,0.00
2018-10-02T02:18:56.521Z,0.00
2018-10-02T02:19:56.745Z,0.00
2018-10-02T02:20:56.966Z,0.00
2018-10-02T02:21:57.190Z,0.00
2018-10-02T02:22:57.415Z,0.00
2018-10-02T02:23:57.637Z,0.00
2018-10-02T02:24:57.861Z,0.00
2018-10-02T02:25:58.087Z,0.00
2018-10-02T02:26:58.310Z,0.00
2018-10-02T02:27:58.532Z,0.00
2018-10-02T02:28:58.756Z,0.00
2018-10-02T02:29:58.982Z,0.00
2018-10-02T02:30:59.204Z,0.00
2018-10-02T02:31:59.428Z,0.00
2018-10-02T02:32:59.655Z,0.00
2018-10-02T02:33:59.879Z,0.00
2018-10-02T02:35:00.104Z,0.00
2018-10-02T02:36:00.332Z,0.00
2018-10-02T02:37:00.552Z,0.00
2018-10-02T02:38:00.776Z,0.00
2018-10-02T02:39:00.999Z,0.00
2018-10-02T02:40:01.223Z,0.00
2018-10-02T02:41:01.448Z,0.00
2018-10-02T02:42:01.672Z,0.00
2018-10-02T02:43:01.897Z,0.00
2018-10-02T02:44:02.123Z,0.00
2018-10-02T02:45:02.349Z,0.00
2018-10-02T02:46:02.570Z,0.00
2018-10-02T02:47:02.819Z,0.00
2018-10-02T02:48:03.015Z,0.00
2018-10-02T02:49:03.238Z,0.00
2018-10-02T02:50:03.466Z,0.00
2018-10-02T02:51:03.687Z,0.00
2018-10-02T02:52:03.911Z,0.00
2018-10-02T02:53:04.138Z,0.00
2018-10-02T02:54:04.357Z,0.00
2018-10-02T02:55:04.578Z,0.00
2018-10-02T02:56:04.803Z,0.00
2018-10-02T02:57:05.029Z,0.00
2018-10-02T02:58:05.259Z,0.00
2018-10-02T02:59:05.480Z,0.00
2018-10-02T03:00:05.703Z,0.00
2018-10-02T03:01:05.928Z,0.00
2018-10-02T03:02:06.150Z,0.00
2018-10-02T03:03:06.376Z,0.00
2018-10-02T03:04:06.599Z,0.00
2018-10-02T03:05:06.821Z,0.00
2018-10-02T03:06:07.047Z,0.00
2018-10-02T03:07:07.270Z,0.00
2018-10-02T03:08:07.500Z,0.00
2018-10-02T03:09:07.719Z,0.00
2018-10-02T03:10:07.940Z,0.00
2018-10-02T03:11:08.167Z,0.00
2018-10-02T03:12:08.391Z,0.00
2018-10-02T03:13:08.616Z,0.00
2018-10-02T03:14:08.839Z,0.00
2018-10-02T03:15:09.065Z,0.00
2018-10-02T03:16:09.289Z,0.00
2018-10-02T03:17:09.512Z,0.00
2018-10-02T03:18:09.734Z,0.00
2018-10-02T03:19:09.958Z,0.00
2018-10-02T03:20:10.184Z,0.00
2018-10-02T03:21:10.407Z,0.00
2018-10-02T03:22:10.638Z,0.00
2018-10-02T03:23:10.858Z,0.00
2018-10-02T03:24:11.079Z,0.00
2018-10-02T03:25:11.305Z,0.00
2018-10-02T03:26:11.527Z,0.00
2018-10-02T03:27:11.752Z,0.00
2018-10-02T03:28:11.974Z,0.00
2018-10-02T03:29:12.198Z,0.00
2018-10-02T03:30:12.425Z,0.00
2018-10-02T03:31:12.648Z,0.00
2018-10-02T03:32:12.879Z,0.00
2018-10-02T03:33:13.094Z,0.00
2018-10-02T03:34:13.320Z,0.00
2018-10-02T03:35:13.541Z,0.00
2018-10-02T03:36:13.764Z,0.00
2018-10-02T03:37:13.986Z,0.00
2018-10-02T03:38:14.211Z,0.00
2018-10-02T03:39:14.435Z,0.00
2018-10-02T03:40:14.658Z,0.00
2018-10-02T03:41:14.881Z,0.00
2018-10-02T03:42:15.107Z,0.00
2018-10-02T03:43:15.329Z,0.00
2018-10-02T03:44:15.549Z,0.00
2018-10-02T03:45:15.775Z,0.00
2018-10-02T03:46:16.001Z,0.00
2018-10-02T03:47:16.219Z,0.00
2018-10-02T03:48:16.442Z,0.00
2018-10-02T03:49:16.667Z,0.00
2018-10-02T03:50:16.890Z,0.00
2018-10-02T03:51:17.115Z,0.00
2018-10-02T03:52:17.338Z,0.00
2018-10-02T03:53:17.564Z,0.00
2018-10-02T03:54:17.787Z,0.00
2018-10-02T03:55:18.013Z,0.00
2018-10-02T03:56:18.237Z,0.00
2018-10-02T03:57:18.462Z,0.00
2018-10-02T03:58:18.685Z,0.00
2018-10-02T03:59:18.907Z,0.00
2018-10-02T04:00:19.132Z,0.00
2018-10-02T04:01:19.356Z,0.00
2018-10-02T04:02:19.580Z,0.00
2018-10-02T04:03:19.830Z,0.00
2018-10-02T04:04:20.026Z,0.00
2018-10-02T04:05:20.250Z,0.00
2018-10-02T04:06:20.476Z,0.00
2018-10-02T04:07:20.705Z,0.00
2018-10-02T04:08:20.921Z,0.00
2018-10-02T04:09:21.151Z,0.00
2018-10-02T04:10:21.368Z,0.00
2018-10-02T04:11:21.593Z,0.00
2018-10-02T04:12:21.817Z,0.00
2018-10-02T04:13:22.118Z,0.00
2018-10-02T04:14:22.266Z,0.00
2018-10-02T04:15:22.488Z,0.00
2018-10-02T04:16:22.712Z,0.00
2018-10-02T04:17:22.935Z,0.00
2018-10-02T04:18:23.158Z,0.00
2018-10-02T04:19:23.388Z,0.00
2018-10-02T04:20:23.609Z,0.00
2018-10-02T04:21:23.832Z,0.00
2018-10-02T04:22:24.055Z,0.00
2018-10-02T04:23:24.281Z,0.00
2018-10-02T04:24:24.505Z,0.00
2018-10-02T04:25:24.735Z,0.00
2018-10-02T04:26:24.954Z,0.00
2018-10-02T04:27:25.185Z,0.00
2018-10-02T04:28:25.449Z,0.00
2018-10-02T04:29:25.633Z,0.00
2018-10-02T04:30:25.854Z,0.00
2018-10-02T04:31:26.077Z,0.00
2018-10-02T04:32:26.301Z,0.00
2018-10-02T04:33:26.526Z,0.00
2018-10-02T04:34:26.750Z,0.00
2018-10-02T04:35:26.971Z,0.00
2018-10-02T04:36:27.199Z,0.00
2018-10-02T04:37:27.420Z,0.00
2018-10-02T04:38:27.644Z,0.00
2018-10-02T04:39:27.959Z,0.00
2018-10-02T04:40:28.093Z,0.00
2018-10-02T04:41:28.319Z,0.00
2018-10-02T04:42:28.542Z,0.00
2018-10-02T04:43:28.768Z,0.00
2018-10-02T04:44:28.999Z,0.00
2018-10-02T04:45:29.219Z,0.00
2018-10-02T04:46:29.444Z,0.00
2018-10-02T04:47:29.672Z,0.00
2018-10-02T04:48:29.892Z,0.00
2018-10-02T04:49:30.116Z,0.00
2018-10-02T04:50:30.339Z,0.00
2018-10-02T04:51:30.563Z,0.00
2018-10-02T04:52:30.787Z,0.00
2018-10-02T04:53:31.013Z,4.00
2018-10-02T04:54:31.238Z,4.00
2018-10-02T04:55:31.461Z,4.00
2018-10-02T04:56:31.691Z,0.00
2018-10-02T04:57:31.911Z,4.00
2018-10-02T04:58:32.132Z,4.00
2018-10-02T04:59:32.355Z,4.00
2018-10-02T05:00:32.582Z,4.00
2018-10-02T05:01:32.806Z,8.00
2018-10-02T05:02:33.036Z,8.00
2018-10-02T05:03:33.259Z,8.00
2018-10-02T05:04:33.483Z,8.00
2018-10-02T05:05:33.711Z,8.00
2018-10-02T05:06:33.933Z,12.00
2018-10-02T05:07:34.160Z,16.00
2018-10-02T05:08:34.395Z,20.00
2018-10-02T05:09:34.609Z,24.00
2018-10-02T05:10:34.833Z,28.00
2018-10-02T05:11:35.057Z,28.00
2018-10-02T05:12:35.283Z,36.00
2018-10-02T05:13:35.512Z,44.00
2018-10-02T05:14:35.732Z,44.00
2018-10-02T05:15:35.954Z,56.00
2018-10-02T05:16:36.176Z,64.00
2018-10-02T05:17:36.404Z,76.00
2018-10-02T05:18:36.625Z,80.00
2018-10-02T05:19:36.853Z,88.00
2018-10-02T05:20:37.124Z,104.00
2018-10-02T05:21:37.302Z,120.00
2018-10-02T05:22:37.526Z,124.00
2018-10-02T05:23:37.753Z,128.00
2018-10-02T05:24:37.977Z,128.00
2018-10-02T05:25:38.197Z,144.00
2018-10-02T05:26:38.424Z,160.00
2018-10-02T05:27:38.688Z,180.00
2018-10-02T05:28:38.874Z,212.00
2018-10-02T05:29:39.102Z,240.00
2018-10-02T05:30:39.324Z,264.00
2018-10-02T05:31:39.548Z,276.00
2018-10-02T05:32:39.773Z,276.00
2018-10-02T05:33:40.072Z,284.00
2018-10-02T05:34:40.232Z,280.00
2018-10-02T05:35:40.456Z,272.00
2018-10-02T05:36:40.682Z,268.00
2018-10-02T05:37:40.898Z,272.00
2018-10-02T05:38:41.123Z,280.00
2018-10-02T05:39:41.347Z,312.00
2018-10-02T05:40:41.571Z,336.00
2018-10-02T05:41:41.798Z,332.00
2018-10-02T05:42:42.105Z,320.00
2018-10-02T05:43:42.251Z,336.00
2018-10-02T05:44:42.477Z,364.00
2018-10-02T05:45:42.694Z,380.00
2018-10-02T05:46:42.909Z,396.00
2018-10-02T05:47:43.129Z,408.00
2018-10-02T05:48:43.357Z,428.00
2018-10-02T05:49:43.577Z,444.00
2018-10-02T05:50:43.851Z,420.00
2018-10-02T05:51:44.029Z,400.00
2018-10-02T05:52:44.254Z,396.00
2018-10-02T05:53:44.483Z,364.00
2018-10-02T05:54:44.700Z,368.00
2018-10-02T05:55:44.922Z,360.00
2018-10-02T05:56:45.154Z,360.00
2018-10-02T05:57:45.374Z,360.00
2018-10-02T05:58:45.600Z,356.00
2018-10-02T05:59:45.831Z,328.00
2018-10-02T06:00:46.049Z,308.00
2018-10-02T06:01:46.280Z,332.00
2018-10-02T06:02:46.499Z,368.00
2018-10-02T06:03:46.727Z,372.00
2018-10-02T06:04:46.947Z,412.00
2018-10-02T06:05:47.169Z,488.00
2018-10-02T06:06:47.399Z,540.00
2018-10-02T06:07:47.626Z,596.00
2018-10-02T06:08:47.848Z,632.00
2018-10-02T06:09:48.080Z,732.00
2018-10-02T06:10:48.295Z,784.00
2018-10-02T06:11:48.523Z,800.00
2018-10-02T06:12:48.752Z,768.00
2018-10-02T06:13:48.981Z,732.00
2018-10-02T06:14:49.205Z,672.00
2018-10-02T06:15:49.432Z,620.00
2018-10-02T06:16:49.661Z,616.00
2018-10-02T06:17:49.891Z,612.00
2018-10-02T06:18:50.154Z,676.00
2018-10-02T06:19:50.331Z,716.00
2018-10-02T06:20:50.565Z,776.00
2018-10-02T06:21:50.792Z,832.00
2018-10-02T06:22:51.014Z,920.00
2018-10-02T06:23:51.248Z,972.00
2018-10-02T06:24:51.573Z,996.00
2018-10-02T06:25:51.685Z,1008.00
2018-10-02T06:26:51.917Z,1032.00
2018-10-02T06:27:52.137Z,1088.00
2018-10-02T06:28:52.360Z,1224.00
2018-10-02T06:29:52.585Z,1360.00
2018-10-02T06:30:52.811Z,1408.00
2018-10-02T06:31:53.039Z,1436.00
2018-10-02T06:32:53.263Z,1556.00
2018-10-02T06:33:53.486Z,1604.00
2018-10-02T06:34:53.708Z,1568.00
2018-10-02T06:35:53.930Z,1428.00
2018-10-02T06:36:54.209Z,1296.00
2018-10-02T06:37:54.422Z,1136.00
2018-10-02T06:38:54.643Z,1036.00
2018-10-02T06:39:54.836Z,996.00
2018-10-02T06:40:55.048Z,996.00
2018-10-02T06:41:55.271Z,964.00
2018-10-02T06:42:55.497Z,1000.00
2018-10-02T06:43:55.724Z,980.00
2018-10-02T06:44:55.959Z,1024.00
2018-10-02T06:45:56.165Z,1052.00
2018-10-02T06:46:56.390Z,1064.00
2018-10-02T06:47:56.618Z,1160.00
2018-10-02T06:48:56.847Z,1212.00
2018-10-02T06:49:57.057Z,1248.00
2018-10-02T06:50:57.353Z,1284.00
2018-10-02T06:51:57.539Z,1452.00
2018-10-02T06:52:57.731Z,1640.00
2018-10-02T06:53:57.955Z,1880.00
2018-10-02T06:54:58.183Z,2136.00
2018-10-02T06:55:58.408Z,2416.00
2018-10-02T06:56:58.714Z,2600.00
2018-10-02T06:57:58.856Z,2792.00
2018-10-02T06:58:59.078Z,2804.00
2018-10-02T06:59:59.299Z,2660.00
2018-10-02T07:00:59.526Z,2512.00
2018-10-02T07:01:59.756Z,2460.00
2018-10-02T07:03:00.021Z,2452.00
2018-10-02T07:04:00.204Z,2456.00
2018-10-02T07:05:00.438Z,2464.00
2018-10-02T07:06:00.653Z,2464.00
2018-10-02T07:07:00.881Z,2436.00
2018-10-02T07:08:01.107Z,2352.00
2018-10-02T07:09:01.401Z,2208.00
2018-10-02T07:10:01.556Z,2040.00
2018-10-02T07:11:01.780Z,1880.00
2018-10-02T07:12:02.006Z,1784.00
2018-10-02T07:13:02.233Z,1748.00
2018-10-02T07:14:02.451Z,1748.00
2018-10-02T07:15:02.694Z,1760.00
2018-10-02T07:16:02.909Z,1836.00
2018-10-02T07:17:03.132Z,1944.00
2018-10-02T07:18:03.358Z,2072.00
2018-10-02T07:19:03.585Z,2236.00
2018-10-02T07:20:03.810Z,2400.00
2018-10-02T07:21:04.115Z,2516.00
2018-10-02T07:22:04.264Z,2516.00
2018-10-02T07:23:04.497Z,2404.00
2018-10-02T07:24:04.715Z,2244.00
2018-10-02T07:25:04.940Z,2100.00
2018-10-02T07:26:05.165Z,1980.00
2018-10-02T07:27:05.516Z,1828.00
2018-10-02T07:28:05.654Z,1644.00
2018-10-02T07:29:05.840Z,1520.00
2018-10-02T07:30:06.067Z,1420.00
2018-10-02T07:31:06.360Z,1304.00
2018-10-02T07:32:06.530Z,1148.00
2018-10-02T07:33:06.829Z,1044.00
2018-10-02T07:34:06.979Z,1004.00
2018-10-02T07:35:07.198Z,1092.00
2018-10-02T07:36:07.421Z,1180.00
2018-10-02T07:37:07.651Z,1248.00
2018-10-02T07:38:07.863Z,1288.00
2018-10-02T07:39:08.202Z,1344.00
2018-10-02T07:40:08.310Z,1376.00
2018-10-02T07:41:08.536Z,1400.00
2018-10-02T07:42:08.783Z,1452.00
2018-10-02T07:43:08.977Z,1508.00
2018-10-02T07:44:09.200Z,1556.00
2018-10-02T07:45:09.424Z,1584.00
2018-10-02T07:46:09.642Z,1548.00
2018-10-02T07:47:09.877Z,1492.00
2018-10-02T07:48:10.086Z,1516.00
2018-10-02T07:49:10.314Z,1536.00
2018-10-02T07:50:10.547Z,1524.00
2018-10-02T07:51:10.761Z,1500.00
2018-10-02T07:52:10.995Z,1476.00
2018-10-02T07:53:11.207Z,1440.00
2018-10-02T07:54:11.449Z,1396.00
2018-10-02T07:55:11.654Z,1384.00
2018-10-02T07:56:11.881Z,1380.00
2018-10-02T07:57:12.119Z,1396.00
2018-10-02T07:58:12.334Z,1448.00
2018-10-02T07:59:12.563Z,1540.00
2018-10-02T08:00:12.789Z,1660.00
2018-10-02T08:01:13.013Z,1800.00
2018-10-02T08:02:13.238Z,1952.00
2018-10-02T08:03:13.469Z,2056.00
2018-10-02T08:04:13.693Z,2004.00
2018-10-02T08:05:13.955Z,1876.00
2018-10-02T08:06:14.146Z,1772.00
2018-10-02T08:07:14.371Z,1660.00
2018-10-02T08:08:14.587Z,1564.00
2018-10-02T08:09:14.816Z,1512.00
2018-10-02T08:10:15.042Z,1492.00
2018-10-02T08:11:15.271Z,1524.00
2018-10-02T08:12:15.649Z,1612.00
2018-10-02T08:13:15.714Z,1724.00
2018-10-02T08:14:15.940Z,1712.00
2018-10-02T08:15:16.171Z,1668.00
2018-10-02T08:16:16.396Z,1636.00
2018-10-02T08:17:16.621Z,1584.00
2018-10-02T08:18:16.849Z,1556.00
2018-10-02T08:19:17.131Z,1576.00
2018-10-02T08:20:17.300Z,1632.00
2018-10-02T08:21:17.527Z,1656.00
2018-10-02T08:22:17.755Z,1664.00
2018-10-02T08:23:17.985Z,1636.00
2018-10-02T08:24:18.208Z,1616.00
2018-10-02T08:25:18.435Z,1572.00
2018-10-02T08:26:18.659Z,1584.00
2018-10-02T08:27:18.975Z,1728.00
2018-10-02T08:28:19.109Z,1872.00
2018-10-02T08:29:19.380Z,1952.00
2018-10-02T08:30:19.628Z,2072.00
2018-10-02T08:31:19.795Z,2116.00
2018-10-02T08:32:20.021Z,2048.00
2018-10-02T08:33:20.248Z,1956.00
2018-10-02T08:34:20.475Z,1924.00
2018-10-02T08:35:20.761Z,1956.00
2018-10-02T08:36:21.000Z,2040.00
2018-10-02T08:37:21.148Z,2136.00
2018-10-02T08:38:21.399Z,2244.00
2018-10-02T08:39:21.599Z,2256.00
2018-10-02T08:40:21.827Z,2152.00
2018-10-02T08:41:22.051Z,2268.00
2018-10-02T08:42:22.277Z,2428.00
2018-10-02T08:43:22.561Z,2316.00
2018-10-02T08:44:22.754Z,2220.00
2018-10-02T08:45:22.962Z,2480.00
2018-10-02T08:46:23.172Z,2748.00
2018-10-02T08:47:23.437Z,3080.00
2018-10-02T08:48:23.627Z,3040.00
2018-10-02T08:49:23.850Z,3320.00
2018-10-02T08:50:24.083Z,3716.00
2018-10-02T08:51:24.303Z,4020.00
2018-10-02T08:52:24.529Z,4196.00
2018-10-02T08:53:24.804Z,3960.00
2018-10-02T08:54:24.991Z,3828.00
2018-10-02T08:55:25.209Z,4188.00
2018-10-02T08:56:25.431Z,4056.00
2018-10-02T08:57:25.657Z,4024.00
2018-10-02T08:58:25.885Z,3832.00
2018-10-02T08:59:26.112Z,3932.00
2018-10-02T09:00:26.338Z,4136.00
2018-10-02T09:01:26.566Z,4072.00
2018-10-02T09:02:26.794Z,3828.00
2018-10-02T09:03:27.015Z,3644.00
2018-10-02T09:04:27.243Z,3504.00
2018-10-02T09:05:27.473Z,3636.00
2018-10-02T09:06:27.764Z,3816.00
2018-10-02T09:07:27.921Z,3892.00
2018-10-02T09:08:28.148Z,3984.00
2018-10-02T09:09:28.373Z,4092.00
2018-10-02T09:10:28.599Z,4160.00
2018-10-02T09:11:28.826Z,4124.00
2018-10-02T09:12:29.096Z,4040.00
2018-10-02T09:13:29.276Z,3880.00
2018-10-02T09:14:29.504Z,3784.00
2018-10-02T09:15:29.802Z,3732.00
2018-10-02T09:16:29.981Z,3636.00
2018-10-02T09:17:30.184Z,3556.00
2018-10-02T09:18:30.423Z,3512.00
2018-10-02T09:19:30.632Z,3576.00
2018-10-02T09:20:30.855Z,3792.00
2018-10-02T09:21:31.106Z,4028.00
2018-10-02T09:22:31.310Z,4160.00
2018-10-02T09:23:31.542Z,4312.00
2018-10-02T09:24:31.823Z,4292.00
2018-10-02T09:25:32.000Z,4272.00
2018-10-02T09:26:32.220Z,4016.00
2018-10-02T09:27:32.463Z,3764.00
2018-10-02T09:28:32.751Z,3512.00
2018-10-02T09:29:32.927Z,3172.00
2018-10-02T09:30:33.196Z,3184.00
2018-10-02T09:31:33.375Z,3280.00
2018-10-02T09:32:33.601Z,3376.00
2018-10-02T09:33:33.852Z,3044.00
2018-10-02T09:34:34.055Z,2816.00
2018-10-02T09:35:34.282Z,2888.00
2018-10-02T09:36:34.561Z,2936.00
2018-10-02T09:37:34.740Z,3188.00
2018-10-02T09:38:34.973Z,3024.00
2018-10-02T09:39:35.206Z,3024.00
2018-10-02T09:40:35.410Z,2904.00
2018-10-02T09:41:35.638Z,3212.00
2018-10-02T09:42:35.932Z,3524.00
2018-10-02T09:43:36.193Z,3756.00
2018-10-02T09:44:36.314Z,3540.00
2018-10-02T09:45:36.597Z,3728.00
2018-10-02T09:46:36.760Z,4228.00
2018-10-02T09:47:36.988Z,4196.00
2018-10-02T09:48:37.276Z,3912.00
2018-10-02T09:49:37.442Z,3404.00
2018-10-02T09:50:37.697Z,3788.00
2018-10-02T09:51:37.947Z,4452.00
2018-10-02T09:52:38.121Z,4956.00
2018-10-02T09:53:38.342Z,5148.00
2018-10-02T09:54:38.616Z,5208.00
2018-10-02T09:55:38.792Z,4652.00
2018-10-02T09:56:39.147Z,4232.00
2018-10-02T09:57:39.243Z,3464.00
2018-10-02T09:58:39.536Z,3508.00
2018-10-02T09:59:39.698Z,3156.00
2018-10-02T10:00:39.963Z,3520.00
2018-10-02T10:01:40.145Z,3380.00
2018-10-02T10:02:40.480Z,2776.00
2018-10-02T10:03:40.600Z,2656.00
2018-10-02T10:04:40.829Z,2684.00
2018-10-02T10:05:41.054Z,2956.00
2018-10-02T10:06:41.285Z,2788.00
2018-10-02T10:07:41.508Z,2708.00
2018-10-02T10:08:41.730Z,3036.00
2018-10-02T10:09:41.954Z,3056.00
2018-10-02T10:10:42.184Z,3264.00
2018-10-02T10:11:42.410Z,3120.00
2018-10-02T10:12:42.636Z,3128.00
2018-10-02T10:13:42.861Z,2796.00
2018-10-02T10:14:43.090Z,2732.00
2018-10-02T10:15:43.319Z,2528.00
2018-10-02T10:16:43.624Z,2532.00
2018-10-02T10:17:43.774Z,2576.00
2018-10-02T10:18:43.997Z,2464.00
2018-10-02T10:19:44.225Z,2700.00
2018-10-02T10:20:44.447Z,2496.00
2018-10-02T10:21:44.668Z,2504.00
2018-10-02T10:22:44.914Z,2556.00
2018-10-02T10:23:45.123Z,2800.00
2018-10-02T10:24:45.351Z,2720.00
2018-10-02T10:25:45.577Z,2856.00
2018-10-02T10:26:45.805Z,2480.00
2018-10-02T10:27:46.031Z,2524.00
2018-10-02T10:28:46.260Z,2316.00
2018-10-02T10:29:46.478Z,2300.00
2018-10-02T10:30:46.703Z,2560.00
2018-10-02T10:31:46.945Z,2620.00
2018-10-02T10:32:47.155Z,2468.00
2018-10-02T10:33:47.395Z,2196.00
2018-10-02T10:34:47.617Z,2044.00
2018-10-02T10:35:47.843Z,2076.00
2018-10-02T10:36:48.068Z,2236.00
2018-10-02T10:37:48.293Z,2108.00
2018-10-02T10:38:48.530Z,1972.00
2018-10-02T10:39:48.812Z,1896.00
2018-10-02T10:40:49.016Z,1976.00
2018-10-02T10:41:49.201Z,2156.00
2018-10-02T10:42:49.428Z,2728.00
2018-10-02T10:43:49.654Z,2652.00
2018-10-02T10:44:49.880Z,2472.00
2018-10-02T10:45:50.108Z,2240.00
2018-10-02T10:46:50.354Z,2256.00
2018-10-02T10:47:50.563Z,2220.00
2018-10-02T10:48:50.790Z,2068.00
2018-10-02T10:49:51.018Z,1940.00
2018-10-02T10:50:51.253Z,1872.00
2018-10-02T10:51:51.471Z,1816.00
2018-10-02T10:52:51.744Z,1772.00
2018-10-02T10:53:51.931Z,1776.00
2018-10-02T10:54:52.163Z,1816.00
2018-10-02T10:55:52.400Z,1760.00
2018-10-02T10:56:52.619Z,1768.00
2018-10-02T10:57:52.823Z,1824.00
2018-10-02T10:58:53.095Z,1720.00
2018-10-02T10:59:53.274Z,1848.00
2018-10-02T11:00:53.497Z,1968.00
2018-10-02T11:01:53.724Z,2288.00
2018-10-02T11:02:53.966Z,2152.00
2018-10-02T11:03:54.176Z,2120.00
2018-10-02T11:04:54.461Z,2040.00
2018-10-02T11:05:54.626Z,2284.00
2018-10-02T11:06:54.852Z,2240.00
2018-10-02T11:07:55.082Z,1876.00
2018-10-02T11:08:55.303Z,1852.00
2018-10-02T11:09:55.528Z,1804.00
2018-10-02T11:10:55.754Z,1812.00
2018-10-02T11:11:55.978Z,1900.00
2018-10-02T11:12:56.204Z,2188.00
2018-10-02T11:13:56.486Z,2036.00
2018-10-02T11:14:56.660Z,2236.00
2018-10-02T11:15:56.888Z,1956.00
2018-10-02T11:16:57.115Z,1968.00
2018-10-02T11:17:57.337Z,2044.00
2018-10-02T11:18:57.565Z,2280.00
2018-10-02T11:19:57.790Z,1996.00
2018-10-02T11:20:58.020Z,2144.00
2018-10-02T11:21:58.246Z,2120.00
2018-10-02T11:22:58.473Z,2064.00
2018-10-02T11:23:58.768Z,2104.00
2018-10-02T11:24:58.929Z,2264.00
2018-10-02T11:25:59.151Z,2600.00
2018-10-02T11:26:59.376Z,2628.00
2018-10-02T11:27:59.602Z,2700.00
2018-10-02T11:28:59.829Z,2592.00
2018-10-02T11:30:00.056Z,2460.00
2018-10-02T11:31:00.282Z,2352.00
2018-10-02T11:32:00.506Z,2576.00
2018-10-02T11:33:00.729Z,2316.00
2018-10-02T11:34:00.958Z,2332.00
2018-10-02T11:35:01.185Z,2964.00
2018-10-02T11:36:01.409Z,3444.00
2018-10-02T11:37:01.638Z,3380.00
2018-10-02T11:38:01.870Z,3268.00
2018-10-02T11:39:02.088Z,3464.00
2018-10-02T11:40:02.314Z,2888.00
2018-10-02T11:41:02.540Z,2696.00
2018-10-02T11:42:02.765Z,2316.00
2018-10-02T11:43:03.039Z,2608.00
2018-10-02T11:44:03.262Z,2888.00
2018-10-02T11:45:03.502Z,2936.00
2018-10-02T11:46:03.682Z,2668.00
2018-10-02T11:47:03.909Z,3280.00
2018-10-02T11:48:04.133Z,2968.00
2018-10-02T11:49:04.363Z,3004.00
2018-10-02T11:50:04.593Z,3500.00
2018-10-02T11:51:04.860Z,3332.00
2018-10-02T11:52:05.046Z,3444.00
2018-10-02T11:53:05.268Z,3180.00
2018-10-02T11:54:05.494Z,3364.00
2018-10-02T11:55:05.723Z,3964.00
2018-10-02T11:56:05.945Z,3592.00
2018-10-02T11:57:06.172Z,3308.00
2018-10-02T11:58:06.398Z,3852.00
2018-10-02T11:59:06.627Z,3920.00
2018-10-02T12:00:06.848Z,4068.00
2018-10-02T12:01:07.219Z,3332.00
2018-10-02T12:02:07.300Z,2924.00
2018-10-02T12:03:07.540Z,2604.00
2018-10-02T12:04:07.754Z,2512.00
2018-10-02T12:05:07.982Z,2792.00
2018-10-02T12:06:08.207Z,3056.00
2018-10-02T12:07:08.433Z,3576.00
2018-10-02T12:08:08.702Z,3880.00
2018-10-02T12:09:08.912Z,4652.00
2018-10-02T12:10:09.111Z,4232.00
2018-10-02T12:11:09.337Z,4580.00
2018-10-02T12:12:09.566Z,4468.00
2018-10-02T12:13:09.843Z,4496.00
2018-10-02T12:14:10.104Z,4612.00
2018-10-02T12:15:10.274Z,4316.00
2018-10-02T12:16:10.470Z,4496.00
2018-10-02T12:17:10.695Z,4760.00
2018-10-02T12:18:10.923Z,4660.00
2018-10-02T12:19:11.147Z,4404.00
2018-10-02T12:20:11.380Z,5144.00
2018-10-02T12:21:11.602Z,5584.00
2018-10-02T12:22:11.825Z,4880.00
2018-10-02T12:23:12.052Z,4588.00
2018-10-02T12:24:12.277Z,5632.00
2018-10-02T12:25:12.506Z,5524.00
2018-10-02T12:26:12.734Z,5108.00
2018-10-02T12:27:12.957Z,4904.00
2018-10-02T12:28:13.181Z,4248.00
2018-10-02T12:29:13.406Z,4804.00
2018-10-02T12:30:13.629Z,5252.00
2018-10-02T12:31:13.899Z,6176.00
2018-10-02T12:32:14.083Z,5596.00
2018-10-02T12:33:14.314Z,6048.00
2018-10-02T12:34:14.538Z,6124.00
2018-10-02T12:35:14.766Z,5580.00
2018-10-02T12:36:14.991Z,5380.00
2018-10-02T12:37:15.217Z,5300.00
2018-10-02T12:38:15.445Z,5316.00
2018-10-02T12:39:15.740Z,4672.00